sensor_id;sensor_type;location;lat;lon;timestamp;P1;durP1;ratioP1;P2;durP2;ratioP2
27804;SDS011;15183;51.350;11.102;2023-11-21T00:02:25;5.25;;;3.67;;
27804;SDS011;15183;51.350;11.102;2023-11-21T00:04:52;7.30;;;4.10;;
27804;SDS011;15183;51.350;11.102;2023-11-21T00:07:19;10.70;;;3.85;;
27804;SDS011;15183;51.350;11.102;2023-11-21T00:09:47;6.72;;;3.97;;
27804;SDS011;15183;51.350;11.102;2023-11-21T00:12:13;6.38;;;3.30;;
27804;SDS011;15183;51.350;11.102;2023-11-21T00:14:40;5.78;;;2.97;;
27804;SDS011;15183;51.350;11.102;2023-11-21T00:17:06;5.63;;;2.67;;
27804;SDS011;15183;51.350;11.102;2023-11-21T00:19:33;3.05;;;1.90;;
27804;SDS011;15183;51.350;11.102;2023-11-21T00:22:00;4.88;;;2.75;;
27804;SDS011;15183;51.350;11.102;2023-11-21T00:24:26;4.70;;;3.00;;
27804;SDS011;15183;51.350;11.102;2023-11-21T00:26:53;3.75;;;2.92;;
27804;SDS011;15183;51.350;11.102;2023-11-21T00:29:19;4.00;;;2.90;;
27804;SDS011;15183;51.350;11.102;2023-11-21T00:31:46;3.35;;;2.55;;
27804;SDS011;15183;51.350;11.102;2023-11-21T00:34:12;6.88;;;3.10;;
27804;SDS011;15183;51.350;11.102;2023-11-21T00:36:39;7.63;;;3.42;;
27804;SDS011;15183;51.350;11.102;2023-11-21T00:39:06;2.70;;;2.25;;
27804;SDS011;15183;51.350;11.102;2023-11-21T00:41:33;4.55;;;2.80;;
27804;SDS011;15183;51.350;11.102;2023-11-21T00:43:59;3.35;;;2.25;;
27804;SDS011;15183;51.350;11.102;2023-11-21T00:46:26;2.22;;;1.80;;
27804;SDS011;15183;51.350;11.102;2023-11-21T00:48:54;2.35;;;1.70;;
27804;SDS011;15183;51.350;11.102;2023-11-21T00:51:21;3.20;;;2.17;;
27804;SDS011;15183;51.350;11.102;2023-11-21T00:53:48;3.40;;;1.73;;
27804;SDS011;15183;51.350;11.102;2023-11-21T00:56:14;3.35;;;2.00;;
27804;SDS011;15183;51.350;11.102;2023-11-21T00:58:41;4.63;;;2.95;;
27804;SDS011;15183;51.350;11.102;2023-11-21T01:01:09;4.65;;;2.75;;
27804;SDS011;15183;51.350;11.102;2023-11-21T01:03:35;4.20;;;1.88;;
27804;SDS011;15183;51.350;11.102;2023-11-21T01:06:02;7.20;;;3.20;;
27804;SDS011;15183;51.350;11.102;2023-11-21T01:08:30;4.40;;;2.70;;
27804;SDS011;15183;51.350;11.102;2023-11-21T01:10:57;5.70;;;2.83;;
27804;SDS011;15183;51.350;11.102;2023-11-21T01:13:23;3.55;;;2.33;;
27804;SDS011;15183;51.350;11.102;2023-11-21T01:15:55;4.05;;;2.92;;
27804;SDS011;15183;51.350;11.102;2023-11-21T01:18:22;7.50;;;3.38;;
27804;SDS011;15183;51.350;11.102;2023-11-21T01:20:51;5.93;;;2.80;;
27804;SDS011;15183;51.350;11.102;2023-11-21T01:23:19;4.95;;;2.38;;
27804;SDS011;15183;51.350;11.102;2023-11-21T01:25:45;6.65;;;3.22;;
27804;SDS011;15183;51.350;11.102;2023-11-21T01:28:12;6.72;;;4.40;;
27804;SDS011;15183;51.350;11.102;2023-11-21T01:30:38;5.03;;;3.15;;
27804;SDS011;15183;51.350;11.102;2023-11-21T01:33:05;6.90;;;2.75;;
27804;SDS011;15183;51.350;11.102;2023-11-21T01:35:31;4.65;;;2.72;;
27804;SDS011;15183;51.350;11.102;2023-11-21T01:37:57;4.45;;;2.40;;
27804;SDS011;15183;51.350;11.102;2023-11-21T01:40:24;8.60;;;2.75;;
27804;SDS011;15183;51.350;11.102;2023-11-21T01:42:50;6.18;;;3.95;;
27804;SDS011;15183;51.350;11.102;2023-11-21T01:45:19;3.53;;;2.85;;
27804;SDS011;15183;51.350;11.102;2023-11-21T01:47:45;4.90;;;3.45;;
27804;SDS011;15183;51.350;11.102;2023-11-21T01:50:13;4.07;;;2.97;;
27804;SDS011;15183;51.350;11.102;2023-11-21T01:52:46;5.95;;;3.08;;
27804;SDS011;15183;51.350;11.102;2023-11-21T01:55:14;4.57;;;2.42;;
27804;SDS011;15183;51.350;11.102;2023-11-21T01:57:46;2.85;;;2.10;;
27804;SDS011;15183;51.350;11.102;2023-11-21T02:00:13;4.03;;;2.63;;
27804;SDS011;15183;51.350;11.102;2023-11-21T02:02:43;3.83;;;2.35;;
27804;SDS011;15183;51.350;11.102;2023-11-21T02:05:10;8.02;;;2.42;;
27804;SDS011;15183;51.350;11.102;2023-11-21T02:07:41;3.10;;;2.10;;
27804;SDS011;15183;51.350;11.102;2023-11-21T02:10:10;4.78;;;2.83;;
27804;SDS011;15183;51.350;11.102;2023-11-21T02:12:43;2.78;;;2.10;;
27804;SDS011;15183;51.350;11.102;2023-11-21T02:15:10;3.53;;;2.25;;
27804;SDS011;15183;51.350;11.102;2023-11-21T02:17:48;3.42;;;2.60;;
27804;SDS011;15183;51.350;11.102;2023-11-21T02:20:17;3.17;;;1.80;;
27804;SDS011;15183;51.350;11.102;2023-11-21T02:22:48;4.22;;;2.25;;
27804;SDS011;15183;51.350;11.102;2023-11-21T02:25:28;4.32;;;2.03;;
27804;SDS011;15183;51.350;11.102;2023-11-21T02:27:58;3.28;;;1.95;;
27804;SDS011;15183;51.350;11.102;2023-11-21T02:30:26;2.22;;;2.03;;
27804;SDS011;15183;51.350;11.102;2023-11-21T02:32:53;2.90;;;2.10;;
27804;SDS011;15183;51.350;11.102;2023-11-21T02:35:22;5.43;;;3.00;;
27804;SDS011;15183;51.350;11.102;2023-11-21T02:37:49;4.05;;;2.33;;
27804;SDS011;15183;51.350;11.102;2023-11-21T02:40:15;2.35;;;1.95;;
27804;SDS011;15183;51.350;11.102;2023-11-21T02:42:50;3.53;;;2.35;;
27804;SDS011;15183;51.350;11.102;2023-11-21T02:45:18;3.15;;;2.30;;
27804;SDS011;15183;51.350;11.102;2023-11-21T02:47:46;3.08;;;2.03;;
27804;SDS011;15183;51.350;11.102;2023-11-21T02:50:15;6.60;;;2.58;;
27804;SDS011;15183;51.350;11.102;2023-11-21T02:52:42;3.95;;;2.55;;
27804;SDS011;15183;51.350;11.102;2023-11-21T02:55:08;7.60;;;3.45;;
27804;SDS011;15183;51.350;11.102;2023-11-21T02:57:34;4.43;;;2.40;;
27804;SDS011;15183;51.350;11.102;2023-11-21T03:00:01;2.67;;;2.15;;
27804;SDS011;15183;51.350;11.102;2023-11-21T03:02:28;4.70;;;2.67;;
27804;SDS011;15183;51.350;11.102;2023-11-21T03:04:54;4.57;;;3.28;;
27804;SDS011;15183;51.350;11.102;2023-11-21T03:07:21;6.40;;;2.85;;
27804;SDS011;15183;51.350;11.102;2023-11-21T03:09:47;3.70;;;2.75;;
27804;SDS011;15183;51.350;11.102;2023-11-21T03:12:13;4.97;;;2.38;;
27804;SDS011;15183;51.350;11.102;2023-11-21T03:14:41;3.83;;;2.70;;
27804;SDS011;15183;51.350;11.102;2023-11-21T03:17:08;5.22;;;2.95;;
27804;SDS011;15183;51.350;11.102;2023-11-21T03:19:34;4.18;;;2.40;;
27804;SDS011;15183;51.350;11.102;2023-11-21T03:22:00;3.28;;;2.40;;
27804;SDS011;15183;51.350;11.102;2023-11-21T03:24:27;4.40;;;2.80;;
27804;SDS011;15183;51.350;11.102;2023-11-21T03:26:53;4.70;;;2.92;;
27804;SDS011;15183;51.350;11.102;2023-11-21T03:29:20;3.63;;;2.92;;
27804;SDS011;15183;51.350;11.102;2023-11-21T03:31:46;5.30;;;3.03;;
27804;SDS011;15183;51.350;11.102;2023-11-21T03:34:16;4.95;;;3.22;;
27804;SDS011;15183;51.350;11.102;2023-11-21T03:36:51;6.85;;;3.03;;
27804;SDS011;15183;51.350;11.102;2023-11-21T03:39:21;2.67;;;2.22;;
27804;SDS011;15183;51.350;11.102;2023-11-21T03:41:48;5.72;;;2.88;;
27804;SDS011;15183;51.350;11.102;2023-11-21T03:44:14;9.05;;;2.25;;
27804;SDS011;15183;51.350;11.102;2023-11-21T03:46:41;5.88;;;2.75;;
27804;SDS011;15183;51.350;11.102;2023-11-21T03:49:07;5.55;;;2.67;;
27804;SDS011;15183;51.350;11.102;2023-11-21T03:51:33;4.68;;;2.65;;
27804;SDS011;15183;51.350;11.102;2023-11-21T03:54:00;5.30;;;2.70;;
27804;SDS011;15183;51.350;11.102;2023-11-21T03:56:26;4.45;;;2.42;;
27804;SDS011;15183;51.350;11.102;2023-11-21T03:58:53;5.93;;;2.15;;
27804;SDS011;15183;51.350;11.102;2023-11-21T04:01:20;10.50;;;2.20;;
27804;SDS011;15183;51.350;11.102;2023-11-21T04:03:48;3.58;;;2.40;;
27804;SDS011;15183;51.350;11.102;2023-11-21T04:06:15;5.93;;;2.47;;
27804;SDS011;15183;51.350;11.102;2023-11-21T04:08:43;2.88;;;2.42;;
27804;SDS011;15183;51.350;11.102;2023-11-21T04:11:11;4.30;;;2.90;;
27804;SDS011;15183;51.350;11.102;2023-11-21T04:13:38;5.32;;;3.08;;
27804;SDS011;15183;51.350;11.102;2023-11-21T04:16:06;5.03;;;2.90;;
27804;SDS011;15183;51.350;11.102;2023-11-21T04:18:35;6.88;;;2.92;;
27804;SDS011;15183;51.350;11.102;2023-11-21T04:21:02;4.00;;;2.55;;
27804;SDS011;15183;51.350;11.102;2023-11-21T04:23:30;4.40;;;2.67;;
27804;SDS011;15183;51.350;11.102;2023-11-21T04:26:00;3.85;;;2.60;;
27804;SDS011;15183;51.350;11.102;2023-11-21T04:28:30;8.27;;;3.20;;
27804;SDS011;15183;51.350;11.102;2023-11-21T04:30:56;4.38;;;2.80;;
27804;SDS011;15183;51.350;11.102;2023-11-21T04:33:23;3.45;;;2.90;;
27804;SDS011;15183;51.350;11.102;2023-11-21T04:35:51;6.20;;;2.95;;
27804;SDS011;15183;51.350;11.102;2023-11-21T04:38:17;3.70;;;2.90;;
27804;SDS011;15183;51.350;11.102;2023-11-21T04:40:44;4.57;;;2.80;;
27804;SDS011;15183;51.350;11.102;2023-11-21T04:43:11;5.97;;;3.28;;
27804;SDS011;15183;51.350;11.102;2023-11-21T04:45:37;9.73;;;3.50;;
27804;SDS011;15183;51.350;11.102;2023-11-21T04:48:04;10.00;;;4.38;;
27804;SDS011;15183;51.350;11.102;2023-11-21T04:50:32;11.52;;;7.35;;
27804;SDS011;15183;51.350;11.102;2023-11-21T04:52:58;20.80;;;12.68;;
27804;SDS011;15183;51.350;11.102;2023-11-21T04:55:25;22.50;;;13.70;;
27804;SDS011;15183;51.350;11.102;2023-11-21T04:57:54;17.40;;;8.73;;
27804;SDS011;15183;51.350;11.102;2023-11-21T05:00:20;10.43;;;7.22;;
27804;SDS011;15183;51.350;11.102;2023-11-21T05:02:47;9.93;;;6.07;;
27804;SDS011;15183;51.350;11.102;2023-11-21T05:05:13;13.70;;;7.32;;
27804;SDS011;15183;51.350;11.102;2023-11-21T05:07:40;26.88;;;16.48;;
27804;SDS011;15183;51.350;11.102;2023-11-21T05:10:07;25.30;;;14.85;;
27804;SDS011;15183;51.350;11.102;2023-11-21T05:12:37;16.90;;;10.00;;
27804;SDS011;15183;51.350;11.102;2023-11-21T05:15:05;20.00;;;11.88;;
27804;SDS011;15183;51.350;11.102;2023-11-21T05:17:35;17.83;;;10.20;;
27804;SDS011;15183;51.350;11.102;2023-11-21T05:20:03;15.35;;;8.73;;
27804;SDS011;15183;51.350;11.102;2023-11-21T05:22:34;23.23;;;15.45;;
27804;SDS011;15183;51.350;11.102;2023-11-21T05:25:01;14.25;;;9.43;;
27804;SDS011;15183;51.350;11.102;2023-11-21T05:27:31;10.00;;;7.60;;
27804;SDS011;15183;51.350;11.102;2023-11-21T05:29:57;15.73;;;9.40;;
27804;SDS011;15183;51.350;11.102;2023-11-21T05:32:27;18.90;;;11.23;;
27804;SDS011;15183;51.350;11.102;2023-11-21T05:34:53;21.50;;;13.15;;
27804;SDS011;15183;51.350;11.102;2023-11-21T05:37:20;14.30;;;8.70;;
27804;SDS011;15183;51.350;11.102;2023-11-21T05:39:47;17.65;;;9.45;;
27804;SDS011;15183;51.350;11.102;2023-11-21T05:42:13;23.88;;;13.15;;
27804;SDS011;15183;51.350;11.102;2023-11-21T05:44:42;25.00;;;13.82;;
27804;SDS011;15183;51.350;11.102;2023-11-21T05:47:09;18.05;;;10.45;;
27804;SDS011;15183;51.350;11.102;2023-11-21T05:49:36;16.88;;;9.23;;
27804;SDS011;15183;51.350;11.102;2023-11-21T05:52:02;15.32;;;7.80;;
27804;SDS011;15183;51.350;11.102;2023-11-21T05:54:29;15.00;;;7.60;;
27804;SDS011;15183;51.350;11.102;2023-11-21T05:56:55;11.85;;;7.25;;
27804;SDS011;15183;51.350;11.102;2023-11-21T05:59:22;11.00;;;6.70;;
27804;SDS011;15183;51.350;11.102;2023-11-21T06:01:48;12.38;;;7.00;;
27804;SDS011;15183;51.350;11.102;2023-11-21T06:04:15;14.73;;;8.35;;
27804;SDS011;15183;51.350;11.102;2023-11-21T06:06:41;14.60;;;7.13;;
27804;SDS011;15183;51.350;11.102;2023-11-21T06:09:08;7.63;;;5.45;;
27804;SDS011;15183;51.350;11.102;2023-11-21T06:11:35;13.18;;;6.30;;
27804;SDS011;15183;51.350;11.102;2023-11-21T06:14:01;12.32;;;6.25;;
27804;SDS011;15183;51.350;11.102;2023-11-21T06:16:28;10.82;;;6.15;;
27804;SDS011;15183;51.350;11.102;2023-11-21T06:18:54;7.03;;;5.22;;
27804;SDS011;15183;51.350;11.102;2023-11-21T06:21:21;7.20;;;5.28;;
27804;SDS011;15183;51.350;11.102;2023-11-21T06:23:47;7.85;;;5.35;;
27804;SDS011;15183;51.350;11.102;2023-11-21T06:26:13;9.27;;;6.68;;
27804;SDS011;15183;51.350;11.102;2023-11-21T06:28:40;8.25;;;4.90;;
27804;SDS011;15183;51.350;11.102;2023-11-21T06:31:06;7.18;;;5.22;;
27804;SDS011;15183;51.350;11.102;2023-11-21T06:33:33;9.23;;;5.95;;
27804;SDS011;15183;51.350;11.102;2023-11-21T06:36:00;10.32;;;6.18;;
27804;SDS011;15183;51.350;11.102;2023-11-21T06:38:29;12.00;;;6.10;;
27804;SDS011;15183;51.350;11.102;2023-11-21T06:40:57;9.23;;;6.18;;
27804;SDS011;15183;51.350;11.102;2023-11-21T06:43:24;10.23;;;6.03;;
27804;SDS011;15183;51.350;11.102;2023-11-21T06:45:50;11.48;;;6.60;;
27804;SDS011;15183;51.350;11.102;2023-11-21T06:48:17;12.38;;;6.03;;
27804;SDS011;15183;51.350;11.102;2023-11-21T06:50:43;8.93;;;6.13;;
27804;SDS011;15183;51.350;11.102;2023-11-21T06:53:09;9.63;;;5.57;;
27804;SDS011;15183;51.350;11.102;2023-11-21T06:55:36;9.50;;;5.68;;
27804;SDS011;15183;51.350;11.102;2023-11-21T06:58:02;11.30;;;5.88;;
27804;SDS011;15183;51.350;11.102;2023-11-21T07:00:30;10.48;;;5.78;;
27804;SDS011;15183;51.350;11.102;2023-11-21T07:02:57;11.82;;;6.50;;
27804;SDS011;15183;51.350;11.102;2023-11-21T07:05:23;11.85;;;6.53;;
27804;SDS011;15183;51.350;11.102;2023-11-21T07:07:49;8.55;;;6.50;;
27804;SDS011;15183;51.350;11.102;2023-11-21T07:10:16;12.80;;;6.90;;
27804;SDS011;15183;51.350;11.102;2023-11-21T07:12:42;10.25;;;6.82;;
27804;SDS011;15183;51.350;11.102;2023-11-21T07:15:09;11.48;;;6.97;;
27804;SDS011;15183;51.350;11.102;2023-11-21T07:17:36;10.65;;;6.90;;
27804;SDS011;15183;51.350;11.102;2023-11-21T07:20:02;10.55;;;6.55;;
27804;SDS011;15183;51.350;11.102;2023-11-21T07:22:29;17.05;;;7.68;;
27804;SDS011;15183;51.350;11.102;2023-11-21T07:24:56;13.13;;;8.02;;
27804;SDS011;15183;51.350;11.102;2023-11-21T07:27:22;13.27;;;7.50;;
27804;SDS011;15183;51.350;11.102;2023-11-21T07:29:49;12.70;;;7.03;;
27804;SDS011;15183;51.350;11.102;2023-11-21T07:32:15;9.88;;;7.32;;
27804;SDS011;15183;51.350;11.102;2023-11-21T07:34:42;11.73;;;6.82;;
27804;SDS011;15183;51.350;11.102;2023-11-21T07:37:08;12.57;;;6.95;;
27804;SDS011;15183;51.350;11.102;2023-11-21T07:39:35;12.35;;;6.97;;
27804;SDS011;15183;51.350;11.102;2023-11-21T07:42:02;12.55;;;7.20;;
27804;SDS011;15183;51.350;11.102;2023-11-21T07:44:30;10.75;;;7.20;;
27804;SDS011;15183;51.350;11.102;2023-11-21T07:46:56;13.38;;;7.57;;
27804;SDS011;15183;51.350;11.102;2023-11-21T07:49:23;13.18;;;7.03;;
27804;SDS011;15183;51.350;11.102;2023-11-21T07:51:50;12.50;;;6.82;;
27804;SDS011;15183;51.350;11.102;2023-11-21T07:54:17;14.52;;;7.80;;
27804;SDS011;15183;51.350;11.102;2023-11-21T07:56:43;13.30;;;6.85;;
27804;SDS011;15183;51.350;11.102;2023-11-21T07:59:10;16.42;;;7.97;;
27804;SDS011;15183;51.350;11.102;2023-11-21T08:01:38;14.73;;;7.90;;
27804;SDS011;15183;51.350;11.102;2023-11-21T08:04:06;11.43;;;7.20;;
27804;SDS011;15183;51.350;11.102;2023-11-21T08:06:32;11.82;;;7.97;;
27804;SDS011;15183;51.350;11.102;2023-11-21T08:08:59;13.25;;;8.25;;
27804;SDS011;15183;51.350;11.102;2023-11-21T08:11:25;14.32;;;7.63;;
27804;SDS011;15183;51.350;11.102;2023-11-21T08:13:54;13.65;;;8.10;;
27804;SDS011;15183;51.350;11.102;2023-11-21T08:16:21;14.35;;;8.02;;
27804;SDS011;15183;51.350;11.102;2023-11-21T08:18:49;14.52;;;9.05;;
27804;SDS011;15183;51.350;11.102;2023-11-21T08:21:16;22.83;;;9.23;;
27804;SDS011;15183;51.350;11.102;2023-11-21T08:23:43;19.80;;;11.40;;
27804;SDS011;15183;51.350;11.102;2023-11-21T08:26:09;16.67;;;10.13;;
27804;SDS011;15183;51.350;11.102;2023-11-21T08:28:35;16.85;;;11.75;;
27804;SDS011;15183;51.350;11.102;2023-11-21T08:31:02;20.23;;;13.65;;
27804;SDS011;15183;51.350;11.102;2023-11-21T08:33:30;25.52;;;15.02;;
27804;SDS011;15183;51.350;11.102;2023-11-21T08:35:56;22.27;;;11.70;;
27804;SDS011;15183;51.350;11.102;2023-11-21T08:38:22;19.15;;;12.20;;
27804;SDS011;15183;51.350;11.102;2023-11-21T08:40:49;20.73;;;11.43;;
27804;SDS011;15183;51.350;11.102;2023-11-21T08:43:15;17.88;;;11.70;;
27804;SDS011;15183;51.350;11.102;2023-11-21T08:45:45;18.23;;;11.38;;
27804;SDS011;15183;51.350;11.102;2023-11-21T08:48:12;20.58;;;10.10;;
27804;SDS011;15183;51.350;11.102;2023-11-21T08:50:38;16.98;;;11.15;;
27804;SDS011;15183;51.350;11.102;2023-11-21T08:53:05;23.15;;;9.85;;
27804;SDS011;15183;51.350;11.102;2023-11-21T08:55:31;16.63;;;10.55;;
27804;SDS011;15183;51.350;11.102;2023-11-21T08:58:02;17.20;;;10.40;;
27804;SDS011;15183;51.350;11.102;2023-11-21T09:00:31;19.13;;;11.35;;
27804;SDS011;15183;51.350;11.102;2023-11-21T09:02:59;21.88;;;10.55;;
27804;SDS011;15183;51.350;11.102;2023-11-21T09:05:28;19.77;;;11.35;;
27804;SDS011;15183;51.350;11.102;2023-11-21T09:07:54;17.92;;;10.63;;
27804;SDS011;15183;51.350;11.102;2023-11-21T09:10:21;21.50;;;12.38;;
27804;SDS011;15183;51.350;11.102;2023-11-21T09:12:48;18.98;;;10.70;;
27804;SDS011;15183;51.350;11.102;2023-11-21T09:15:15;20.90;;;11.05;;
27804;SDS011;15183;51.350;11.102;2023-11-21T09:17:41;21.58;;;11.07;;
27804;SDS011;15183;51.350;11.102;2023-11-21T09:20:09;17.58;;;10.50;;
27804;SDS011;15183;51.350;11.102;2023-11-21T09:22:36;21.55;;;10.52;;
27804;SDS011;15183;51.350;11.102;2023-11-21T09:25:02;18.15;;;11.15;;
27804;SDS011;15183;51.350;11.102;2023-11-21T09:27:34;23.95;;;10.52;;
27804;SDS011;15183;51.350;11.102;2023-11-21T09:30:03;21.52;;;11.60;;
27804;SDS011;15183;51.350;11.102;2023-11-21T09:32:31;24.02;;;11.73;;
27804;SDS011;15183;51.350;11.102;2023-11-21T09:34:57;19.23;;;10.75;;
27804;SDS011;15183;51.350;11.102;2023-11-21T09:37:24;18.75;;;11.77;;
27804;SDS011;15183;51.350;11.102;2023-11-21T09:39:52;20.85;;;10.98;;
27804;SDS011;15183;51.350;11.102;2023-11-21T09:42:40;20.77;;;13.23;;
27804;SDS011;15183;51.350;11.102;2023-11-21T09:45:17;22.02;;;11.98;;
27804;SDS011;15183;51.350;11.102;2023-11-21T09:47:53;19.95;;;12.85;;
27804;SDS011;15183;51.350;11.102;2023-11-21T09:50:21;22.08;;;12.00;;
27804;SDS011;15183;51.350;11.102;2023-11-21T09:55:48;20.25;;;12.77;;
27804;SDS011;15183;51.350;11.102;2023-11-21T09:58:19;77.50;;;40.20;;
27804;SDS011;15183;51.350;11.102;2023-11-21T10:00:48;48.58;;;26.48;;
27804;SDS011;15183;51.350;11.102;2023-11-21T10:03:18;61.05;;;30.98;;
27804;SDS011;15183;51.350;11.102;2023-11-21T10:05:45;138.10;;;58.70;;
27804;SDS011;15183;51.350;11.102;2023-11-21T10:08:13;107.03;;;49.25;;
27804;SDS011;15183;51.350;11.102;2023-11-21T10:10:43;87.43;;;42.30;;
27804;SDS011;15183;51.350;11.102;2023-11-21T10:13:12;108.68;;;53.38;;
27804;SDS011;15183;51.350;11.102;2023-11-21T10:15:42;58.63;;;31.10;;
27804;SDS011;15183;51.350;11.102;2023-11-21T10:18:14;42.95;;;23.58;;
27804;SDS011;15183;51.350;11.102;2023-11-21T10:20:41;29.85;;;17.98;;
27804;SDS011;15183;51.350;11.102;2023-11-21T10:23:09;28.27;;;17.17;;
27804;SDS011;15183;51.350;11.102;2023-11-21T10:25:37;33.42;;;18.67;;
27804;SDS011;15183;51.350;11.102;2023-11-21T10:28:03;31.45;;;20.13;;
27804;SDS011;15183;51.350;11.102;2023-11-21T10:30:34;30.48;;;18.95;;
27804;SDS011;15183;51.350;11.102;2023-11-21T10:33:04;26.63;;;17.98;;
27804;SDS011;15183;51.350;11.102;2023-11-21T10:35:38;22.65;;;14.20;;
27804;SDS011;15183;51.350;11.102;2023-11-21T10:38:06;20.05;;;12.25;;
27804;SDS011;15183;51.350;11.102;2023-11-21T10:40:38;29.05;;;15.48;;
27804;SDS011;15183;51.350;11.102;2023-11-21T10:43:10;24.05;;;13.85;;
27804;SDS011;15183;51.350;11.102;2023-11-21T10:45:38;27.13;;;13.18;;
27804;SDS011;15183;51.350;11.102;2023-11-21T10:48:06;27.58;;;11.90;;
27804;SDS011;15183;51.350;11.102;2023-11-21T10:50:34;24.70;;;12.85;;
27804;SDS011;15183;51.350;11.102;2023-11-21T10:53:04;25.38;;;15.57;;
27804;SDS011;15183;51.350;11.102;2023-11-21T10:55:31;22.23;;;13.93;;
27804;SDS011;15183;51.350;11.102;2023-11-21T10:58:00;20.40;;;14.02;;
27804;SDS011;15183;51.350;11.102;2023-11-21T11:00:30;21.27;;;13.85;;
27804;SDS011;15183;51.350;11.102;2023-11-21T11:03:00;27.05;;;14.10;;
27804;SDS011;15183;51.350;11.102;2023-11-21T11:05:27;19.85;;;12.93;;
27804;SDS011;15183;51.350;11.102;2023-11-21T11:10:31;19.40;;;11.77;;
27804;SDS011;15183;51.350;11.102;2023-11-21T11:12:58;25.02;;;15.65;;
27804;SDS011;15183;51.350;11.102;2023-11-21T11:15:25;22.15;;;14.65;;
27804;SDS011;15183;51.350;11.102;2023-11-21T11:17:53;16.88;;;12.63;;
27804;SDS011;15183;51.350;11.102;2023-11-21T11:20:24;10.88;;;8.85;;
27804;SDS011;15183;51.350;11.102;2023-11-21T11:29:03;9.35;;;6.15;;
27804;SDS011;15183;51.350;11.102;2023-11-21T11:34:53;8.80;;;5.78;;
27804;SDS011;15183;51.350;11.102;2023-11-21T11:37:36;8.63;;;5.70;;
27804;SDS011;15183;51.350;11.102;2023-11-21T11:40:05;8.93;;;5.72;;
27804;SDS011;15183;51.350;11.102;2023-11-21T11:42:32;8.23;;;5.38;;
27804;SDS011;15183;51.350;11.102;2023-11-21T11:44:59;7.57;;;4.32;;
27804;SDS011;15183;51.350;11.102;2023-11-21T11:47:28;8.88;;;3.78;;
27804;SDS011;15183;51.350;11.102;2023-11-21T11:50:09;7.40;;;4.60;;
27804;SDS011;15183;51.350;11.102;2023-11-21T11:52:47;9.02;;;5.25;;
27804;SDS011;15183;51.350;11.102;2023-11-21T11:55:16;4.70;;;3.47;;
27804;SDS011;15183;51.350;11.102;2023-11-21T11:57:46;7.35;;;4.55;;
27804;SDS011;15183;51.350;11.102;2023-11-21T12:00:20;3.90;;;3.20;;
27804;SDS011;15183;51.350;11.102;2023-11-21T12:02:57;2.28;;;2.08;;
27804;SDS011;15183;51.350;11.102;2023-11-21T12:05:29;3.25;;;1.90;;
27804;SDS011;15183;51.350;11.102;2023-11-21T12:08:02;1.83;;;1.65;;
27804;SDS011;15183;51.350;11.102;2023-11-21T12:10:30;2.33;;;1.92;;
27804;SDS011;15183;51.350;11.102;2023-11-21T12:13:11;3.72;;;2.53;;
27804;SDS011;15183;51.350;11.102;2023-11-21T12:15:38;1.88;;;1.73;;
27804;SDS011;15183;51.350;11.102;2023-11-21T12:18:07;2.28;;;2.08;;
27804;SDS011;15183;51.350;11.102;2023-11-21T12:20:33;1.40;;;1.13;;
27804;SDS011;15183;51.350;11.102;2023-11-21T12:23:05;1.30;;;1.20;;
27804;SDS011;15183;51.350;11.102;2023-11-21T12:25:31;2.97;;;2.00;;
27804;SDS011;15183;51.350;11.102;2023-11-21T12:27:59;1.85;;;1.40;;
27804;SDS011;15183;51.350;11.102;2023-11-21T12:30:30;4.75;;;3.30;;
27804;SDS011;15183;51.350;11.102;2023-11-21T12:33:01;2.30;;;1.83;;
27804;SDS011;15183;51.350;11.102;2023-11-21T12:35:33;3.70;;;1.75;;
27804;SDS011;15183;51.350;11.102;2023-11-21T12:38:03;3.42;;;2.20;;
27804;SDS011;15183;51.350;11.102;2023-11-21T12:40:31;15.50;;;9.05;;
27804;SDS011;15183;51.350;11.102;2023-11-21T12:42:58;5.88;;;4.20;;
27804;SDS011;15183;51.350;11.102;2023-11-21T12:45:29;8.88;;;6.00;;
27804;SDS011;15183;51.350;11.102;2023-11-21T12:48:00;5.10;;;3.70;;
27804;SDS011;15183;51.350;11.102;2023-11-21T12:50:33;6.68;;;3.92;;
27804;SDS011;15183;51.350;11.102;2023-11-21T12:53:03;11.85;;;4.15;;
27804;SDS011;15183;51.350;11.102;2023-11-21T12:55:32;5.25;;;3.80;;
27804;SDS011;15183;51.350;11.102;2023-11-21T12:58:03;7.00;;;4.38;;
27804;SDS011;15183;51.350;11.102;2023-11-21T13:00:36;5.07;;;3.97;;
27804;SDS011;15183;51.350;11.102;2023-11-21T13:03:09;10.43;;;7.15;;
27804;SDS011;15183;51.350;11.102;2023-11-21T13:05:46;6.95;;;5.20;;
27804;SDS011;15183;51.350;11.102;2023-11-21T13:08:19;7.22;;;5.57;;
27804;SDS011;15183;51.350;11.102;2023-11-21T13:10:54;12.23;;;8.75;;
27804;SDS011;15183;51.350;11.102;2023-11-21T13:13:22;10.35;;;8.05;;
27804;SDS011;15183;51.350;11.102;2023-11-21T13:15:54;12.32;;;8.10;;
27804;SDS011;15183;51.350;11.102;2023-11-21T13:18:25;12.48;;;9.02;;
27804;SDS011;15183;51.350;11.102;2023-11-21T13:20:55;14.15;;;9.48;;
27804;SDS011;15183;51.350;11.102;2023-11-21T13:23:23;11.57;;;8.45;;
27804;SDS011;15183;51.350;11.102;2023-11-21T13:25:51;11.55;;;7.97;;
27804;SDS011;15183;51.350;11.102;2023-11-21T13:28:18;11.52;;;8.05;;
27804;SDS011;15183;51.350;11.102;2023-11-21T13:30:47;20.52;;;12.45;;
27804;SDS011;15183;51.350;11.102;2023-11-21T13:33:18;13.68;;;9.57;;
27804;SDS011;15183;51.350;11.102;2023-11-21T13:35:47;13.85;;;9.82;;
27804;SDS011;15183;51.350;11.102;2023-11-21T13:38:16;9.75;;;7.55;;
27804;SDS011;15183;51.350;11.102;2023-11-21T13:40:47;11.80;;;8.30;;
27804;SDS011;15183;51.350;11.102;2023-11-21T13:43:23;8.90;;;6.90;;
27804;SDS011;15183;51.350;11.102;2023-11-21T13:45:52;9.02;;;6.93;;
27804;SDS011;15183;51.350;11.102;2023-11-21T13:48:45;10.85;;;7.30;;
27804;SDS011;15183;51.350;11.102;2023-11-21T13:51:19;10.05;;;7.28;;
27804;SDS011;15183;51.350;11.102;2023-11-21T13:53:46;10.43;;;7.20;;
27804;SDS011;15183;51.350;11.102;2023-11-21T13:56:16;12.38;;;7.72;;
27804;SDS011;15183;51.350;11.102;2023-11-21T13:58:46;14.45;;;7.60;;
27804;SDS011;15183;51.350;11.102;2023-11-21T14:01:20;10.48;;;7.47;;
27804;SDS011;15183;51.350;11.102;2023-11-21T14:04:00;8.95;;;6.82;;
27804;SDS011;15183;51.350;11.102;2023-11-21T14:06:49;10.38;;;7.18;;
27804;SDS011;15183;51.350;11.102;2023-11-21T14:09:21;11.15;;;7.55;;
27804;SDS011;15183;51.350;11.102;2023-11-21T14:11:53;13.70;;;7.13;;
27804;SDS011;15183;51.350;11.102;2023-11-21T14:14:26;9.07;;;6.60;;
27804;SDS011;15183;51.350;11.102;2023-11-21T14:16:56;9.27;;;6.93;;
27804;SDS011;15183;51.350;11.102;2023-11-21T14:19:24;11.25;;;7.75;;
27804;SDS011;15183;51.350;11.102;2023-11-21T14:21:58;9.45;;;7.53;;
27804;SDS011;15183;51.350;11.102;2023-11-21T14:24:24;8.52;;;6.72;;
27804;SDS011;15183;51.350;11.102;2023-11-21T14:26:51;11.88;;;7.03;;
27804;SDS011;15183;51.350;11.102;2023-11-21T14:29:18;10.32;;;6.82;;
27804;SDS011;15183;51.350;11.102;2023-11-21T14:31:46;12.90;;;8.15;;
27804;SDS011;15183;51.350;11.102;2023-11-21T14:34:13;11.80;;;8.32;;
27804;SDS011;15183;51.350;11.102;2023-11-21T14:36:41;10.55;;;7.22;;
27804;SDS011;15183;51.350;11.102;2023-11-21T14:39:08;9.13;;;6.30;;
27804;SDS011;15183;51.350;11.102;2023-11-21T14:41:46;9.00;;;6.38;;
27804;SDS011;15183;51.350;11.102;2023-11-21T14:44:12;8.98;;;6.40;;
27804;SDS011;15183;51.350;11.102;2023-11-21T14:46:39;10.65;;;6.30;;
27804;SDS011;15183;51.350;11.102;2023-11-21T14:49:09;10.00;;;6.85;;